Time;durP1;ratioP1;P1;durP2;ratioP2;P2;SDS_P1;SDS_P2;PMS_P1;PMS_P2;Temp;Humidity;BMP_temperature;BMP_pressure;BME280_temperature;BME280_humidity;BME280_pressure;Samples;Min_cycle;Max_cycle;Signal;HPM_P1;HPM_P2
2022/12/06 00:01:59;;;;;;;14.05;8.25;;;;;;;4.68;87.02;93982.50;5092384;28;20381;-34
2022/12/06 00:04:24;;;;;;;13.48;8.07;;;;;;;4.62;87.20;93979.72;5091949;28;20499;-34
2022/12/06 00:06:53;;;;;;;17.95;9.73;;;;;;;4.70;87.05;93983.47;5091730;28;20385;-34
2022/12/06 00:09:23;;;;;;;;;;;;;;;4.76;87.01;93988.94;5074653;28;20035;-34
2022/12/06 00:11:48;;;;;;;16.10;8.20;;;;;;;4.74;87.19;93991.44;5091828;28;20299;-34
2022/12/06 00:14:14;;;;;;;14.95;8.70;;;;;;;4.67;87.11;93976.25;5091481;28;20032;-34
2022/12/06 00:16:40;;;;;;;15.25;9.30;;;;;;;4.81;87.35;93997.13;5091920;28;20024;-34
2022/12/06 00:19:06;;;;;;;16.85;9.40;;;;;;;4.74;87.58;93991.44;5091678;28;20555;-34
2022/12/06 00:21:33;;;;;;;14.30;8.68;;;;;;;4.69;87.57;93990.19;5091560;28;20027;-35
2022/12/06 00:24:06;;;;;;;13.27;8.23;;;;;;;4.70;87.60;93983.47;5091643;28;20020;-34
2022/12/06 00:26:34;;;;;;;19.27;11.27;;;;;;;4.65;87.65;93983.47;5072912;28;20099;-34
2022/12/06 00:29:00;;;;;;;23.63;14.85;;;;;;;4.60;88.13;93982.22;5090757;28;20409;-34
2022/12/06 00:31:27;;;;;;;27.58;15.60;;;;;;;4.73;87.92;93984.47;5090992;28;20028;-34
2022/12/06 00:33:53;;;;;;;49.72;27.55;;;;;;;4.75;87.78;93973.75;5091487;28;20024;-34
2022/12/06 00:36:21;;;;;;;20.58;13.00;;;;;;;4.74;87.80;93975.03;5091611;28;20381;-34
2022/12/06 00:38:47;;;;;;;16.05;8.48;;;;;;;4.83;86.55;93974.78;5091018;28;20024;-34
2022/12/06 00:41:21;;;;;;;12.43;7.75;;;;;;;4.78;86.15;93970.78;5091086;28;20012;-34
2022/12/06 00:43:47;;;;;;;20.77;10.20;;;;;;;4.72;86.75;93969.31;5091272;28;20024;-34
2022/12/06 00:46:26;;;;;;;18.90;10.77;;;;;;;4.65;87.39;93969.78;5091257;28;20397;-34
2022/12/06 00:48:53;;;;;;;18.23;9.43;;;;;;;4.57;88.16;93967.56;5090896;28;20016;-34
2022/12/06 00:51:19;;;;;;;16.98;8.35;;;;;;;4.68;87.40;93966.06;5090817;28;20077;-34
2022/12/06 00:53:45;;;;;;;13.93;8.40;;;;;;;4.63;87.57;93964.06;5090837;28;20032;-34
2022/12/06 00:56:11;;;;;;;17.00;9.45;;;;;;;4.69;87.49;93959.34;5091396;28;20035;-34
2022/12/06 00:58:37;;;;;;;16.67;8.63;;;;;;;4.68;87.49;93950.38;5091014;28;20019;-34
2022/12/06 01:01:17;;;;;;;19.83;8.63;;;;;;;4.72;87.46;93961.81;5091054;28;20050;-34
2022/12/06 01:03:43;;;;;;;15.93;9.23;;;;;;;4.76;87.36;93956.88;5091030;28;20024;-34
2022/12/06 01:06:14;;;;;;;15.32;9.40;;;;;;;4.79;87.40;93957.84;5090727;28;20024;-34
2022/12/06 01:08:40;;;;;;;19.48;10.15;;;;;;;4.83;87.50;93959.09;5091167;28;20024;-34
2022/12/06 01:11:06;;;;;;;16.75;9.18;;;;;;;4.77;87.64;93946.66;5090512;28;20035;-34
2022/12/06 01:13:32;;;;;;;16.88;9.68;;;;;;;4.95;87.45;93948.88;5090753;28;20502;-34
2022/12/06 01:16:19;;;;;;;29.20;13.48;;;;;;;5.01;86.74;93949.59;5090737;28;20462;-34
2022/12/06 01:18:45;;;;;;;25.02;12.40;;;;;;;4.99;86.41;93944.66;5090798;28;20031;-34
2022/12/06 01:21:16;;;;;;;27.38;15.27;;;;;;;4.96;86.50;93939.44;5090716;28;20499;-34
2022/12/06 01:23:42;;;;;;;13.93;8.68;;;;;;;4.95;86.09;93943.41;5090298;28;20105;-34
2022/12/06 01:26:15;;;;;;;20.20;11.32;;;;;;;4.94;86.31;93937.19;5090055;28;20105;-34
2022/12/06 01:28:41;;;;;;;40.42;22.45;;;;;;;5.01;86.05;93944.13;5090599;28;20036;-34
2022/12/06 01:31:06;;;;;;;27.58;15.60;;;;;;;5.03;85.70;93941.63;5090453;28;20032;-34
2022/12/06 01:33:32;;;;;;;17.23;10.93;;;;;;;4.85;85.21;93915.56;5090298;28;20492;-34
2022/12/06 01:35:57;;;;;;;21.75;11.07;;;;;;;5.07;85.09;93939.38;5090170;28;20055;-34
2022/12/06 01:38:23;;;;;;;16.23;9.10;;;;;;;5.09;85.06;93943.13;5090141;28;20032;-34
2022/12/06 01:40:48;;;;;;;12.63;6.35;;;;;;;5.06;85.44;93935.94;5090134;28;20017;-34
2022/12/06 01:43:40;;;;;;;18.30;8.40;;;;;;;5.01;84.85;93935.94;5090487;28;20488;-34
2022/12/06 01:46:25;;;;;;;15.40;8.98;;;;;;;4.98;84.88;93940.41;5090153;28;20085;-34
2022/12/06 01:48:56;;;;;;;13.43;8.10;;;;;;;4.91;85.50;93940.94;5072164;28;20035;-34
2022/12/06 01:51:22;;;;;;;14.23;8.75;;;;;;;4.87;86.00;93939.69;5072425;28;20031;-34
2022/12/06 01:53:49;;;;;;;14.98;8.05;;;;;;;4.89;86.14;93935.22;5090368;28;20027;-34
2022/12/06 01:56:15;;;;;;;20.42;9.73;;;;;;;4.91;85.90;93940.94;5072303;28;20093;-34
2022/12/06 01:58:43;;;;;;;18.02;10.00;;;;;;;4.98;86.13;93934.22;5090057;28;20492;-34
2022/12/06 02:01:09;;;;;;;16.38;9.90;;;;;;;5.03;85.76;93941.63;5072275;28;20395;-34
2022/12/06 02:03:35;;;;;;;17.80;9.55;;;;;;;4.93;86.13;93935.69;5072339;28;20080;-34
2022/12/06 02:06:03;;;;;;;21.13;11.70;;;;;;;4.92;86.34;93936.19;5090045;28;20016;-34
2022/12/06 02:08:29;;;;;;;22.50;9.93;;;;;;;4.90;86.09;93922.25;5072138;28;20035;-34
2022/12/06 02:10:55;;;;;;;13.65;9.30;;;;;;;5.03;85.79;93934.19;5071827;28;20474;-34
2022/12/06 02:13:21;;;;;;;17.98;9.05;;;;;;;5.03;85.30;93934.19;5089821;28;20028;-34
2022/12/06 02:16:05;;;;;;;16.20;8.95;;;;;;;4.81;85.42;93898.66;5071841;28;20057;-34
2022/12/06 02:18:49;;;;;;;12.40;7.15;;;;;;;5.08;84.98;93930.69;5071910;28;20024;-34
2022/12/06 02:21:27;;;;;;;12.43;8.27;;;;;;;5.07;84.80;93920.22;5071976;28;20058;-34
2022/12/06 02:24:30;;;;;;;15.07;8.13;;;;;;;5.04;85.03;93924.75;5071859;28;20591;-34
2022/12/06 02:27:23;;;;;;;18.35;9.68;;;;;;;5.02;85.03;93918.28;5089504;28;20032;-34
2022/12/06 02:30:33;;;;;;;14.55;8.20;;;;;;;5.06;85.10;93918.75;5089601;28;20533;-34
2022/12/06 02:33:14;;;;;;;14.85;7.63;;;;;;;5.03;85.20;93908.81;5071959;28;20043;-34
2022/12/06 02:35:46;;;;;;;18.85;8.32;;;;;;;5.05;85.15;93906.31;5071739;28;20082;-34
2022/12/06 02:38:19;;;;;;;18.83;8.73;;;;;;;5.11;84.86;93909.78;5071735;28;20412;-34
2022/12/06 02:40:49;;;;;;;15.70;8.48;;;;;;;5.04;84.79;93902.09;5071668;28;20487;-34
2022/12/06 02:43:17;;;;;;;13.90;8.55;;;;;;;5.03;85.10;93903.31;5071915;28;20480;-34
2022/12/06 02:45:51;;;;;;;18.23;8.90;;;;;;;5.01;85.28;93900.34;5071536;28;20039;-34
2022/12/06 02:48:17;;;;;;;13.18;8.05;;;;;;;5.01;85.53;93895.63;5089833;28;20057;-34
2022/12/06 02:50:52;;;;;;;19.42;8.70;;;;;;;5.05;85.83;93898.09;5071490;28;20023;-34
2022/12/06 02:53:19;;;;;;;12.68;8.10;;;;;;;5.04;85.83;93899.34;5073045;28;20456;-34
2022/12/06 02:55:45;;;;;;;14.82;8.00;;;;;;;5.09;85.78;93899.34;5075130;28;20103;-34
2022/12/06 02:58:10;;;;;;;19.80;10.40;;;;;;;5.04;86.09;93900.13;5075298;28;20091;-34
2022/12/06 03:00:40;;;;;;;29.70;13.85;;;;;;;5.05;86.17;93896.13;5093288;28;20507;-34
2022/12/06 03:03:24;;;;;;;29.63;14.80;;;;;;;5.08;86.10;93897.09;5093219;28;20434;-34
2022/12/06 03:06:00;;;;;;;22.20;12.05;;;;;;;5.08;85.91;93905.31;5092975;28;20028;-34
2022/12/06 03:08:52;;;;;;;27.98;13.48;;;;;;;5.03;86.13;93890.41;5092686;28;20107;-34
2022/12/06 03:11:18;;;;;;;28.45;14.48;;;;;;;5.03;86.24;93892.38;5092703;28;20024;-34
2022/12/06 03:13:46;;;;;;;27.23;13.80;;;;;;;5.03;86.44;93893.13;5092703;28;20027;-34
2022/12/06 03:16:36;;;;;;;26.73;13.02;;;;;;;5.03;86.36;93887.66;5093024;28;20080;-34
2022/12/06 03:19:08;;;;;;;24.73;13.80;;;;;;;4.87;86.77;93876.78;5092725;28;20516;-34
2022/12/06 03:21:40;;;;;;;22.85;13.60;;;;;;;5.02;86.40;93885.44;5074475;28;20038;-34
2022/12/06 03:24:10;;;;;;;15.10;8.52;;;;;;;4.93;85.78;93872.78;5074885;28;20161;-34
2022/12/06 03:26:36;;;;;;;15.82;9.90;;;;;;;4.87;86.13;93882.25;5057894;28;20396;-34
2022/12/06 03:29:03;;;;;;;19.25;10.25;;;;;;;4.85;86.42;93880.00;5092358;28;20030;-34
2022/12/06 03:31:31;;;;;;;17.67;9.75;;;;;;;4.82;86.30;93877.53;5092410;28;20027;-34
2022/12/06 03:34:01;;;;;;;21.25;10.70;;;;;;;4.79;86.37;93879.25;5074310;28;20576;-34
2022/12/06 03:36:28;;;;;;;18.98;9.07;;;;;;;4.74;86.50;93877.31;5074279;28;20095;-34
2022/12/06 03:38:57;;;;;;;18.55;9.73;;;;;;;4.79;86.49;93873.03;5092596;28;20407;-34
2022/12/06 03:41:26;;;;;;;15.70;8.75;;;;;;;4.92;85.94;93881.47;5074551;28;20020;-34
2022/12/06 03:43:51;;;;;;;;;;;;;;;4.85;85.67;93868.31;5092709;28;20538;-34
2022/12/06 03:46:20;;;;;;;18.85;9.65;;;;;;;4.78;86.28;93875.06;5092380;28;19908;-34
2022/12/06 03:48:49;;;;;;;22.15;11.45;;;;;;;4.76;86.80;93869.34;5092144;28;20020;-34
2022/12/06 03:51:25;;;;;;;18.30;10.25;;;;;;;4.81;86.49;93865.09;5073908;28;20046;-34
2022/12/06 03:53:57;;;;;;;20.77;11.38;;;;;;;4.75;86.58;93867.09;5074342;28;20535;-34
2022/12/06 03:56:23;;;;;;;18.25;9.43;;;;;;;4.76;86.40;93857.66;5091880;28;20039;-34
2022/12/06 03:58:48;;;;;;;19.80;11.30;;;;;;;4.81;86.24;93874.03;5073834;28;20034;-34
2022/12/06 04:01:14;;;;;;;18.92;10.18;;;;;;;4.86;86.27;93875.28;5092167;28;20024;-34
2022/12/06 04:03:40;;;;;;;15.95;9.48;;;;;;;4.87;85.67;93871.31;5091982;28;20503;-34
2022/12/06 04:06:06;;;;;;;15.82;10.18;;;;;;;4.86;86.19;93872.53;5091707;28;20032;-34
2022/12/06 04:08:32;;;;;;;17.65;9.00;;;;;;;4.90;86.31;93873.00;5091896;28;20152;-34
2022/12/06 04:10:57;;;;;;;17.67;10.32;;;;;;;4.77;86.31;93870.81;5091828;28;20032;-34
2022/12/06 04:13:23;;;;;;;14.23;8.88;;;;;;;4.81;86.73;93870.56;5091797;28;20475;-34
2022/12/06 04:15:48;;;;;;;22.70;11.65;;;;;;;4.73;87.13;93866.84;5091832;28;20051;-34
2022/12/06 04:18:15;;;;;;;30.35;11.18;;;;;;;4.78;87.03;93869.59;5091543;28;20012;-34
2022/12/06 04:23:38;;;;;;;19.73;10.65;;;;;;;4.72;87.09;93876.31;5076300;28;20054;-34
2022/12/06 04:26:06;;;;;;;17.15;9.90;;;;;;;4.77;86.76;93872.81;5090814;28;20028;-34
2022/12/06 04:39:29;;;;;;;17.20;10.00;;;;;;;4.61;88.22;93880.53;5091430;28;20586;-34
2022/12/06 04:44:39;;;;;;;18.17;10.80;;;;;;;4.63;87.71;93862.91;5091241;28;20038;-34
2022/12/06 04:47:05;;;;;;;21.08;10.57;;;;;;;4.76;87.72;93874.06;5091309;28;20020;-34
2022/12/06 04:49:30;;;;;;;22.02;10.90;;;;;;;4.77;87.17;93878.28;5091133;28;20457;-34
2022/12/06 04:51:56;;;;;;;18.60;9.60;;;;;;;4.81;87.35;93876.78;5090882;28;20404;-34
2022/12/06 04:54:22;;;;;;;22.52;11.52;;;;;;;4.87;87.37;93877.53;5090770;28;20054;-34
2022/12/06 04:56:48;;;;;;;19.08;10.63;;;;;;;4.87;87.38;93874.03;5090740;28;20028;-34
2022/12/06 04:59:13;;;;;;;18.50;11.15;;;;;;;4.83;87.59;93863.34;5091010;28;20020;-34
2022/12/06 05:01:39;;;;;;;19.25;10.85;;;;;;;4.80;87.19;93867.09;5090575;28;20028;-34
2022/12/06 05:04:04;;;;;;;19.83;10.48;;;;;;;4.78;87.26;93869.59;5091004;28;20024;-34
2022/12/06 05:06:30;;;;;;;18.60;10.48;;;;;;;4.78;87.39;93868.84;5091163;28;20024;-34
2022/12/06 05:08:56;;;;;;;23.90;11.18;;;;;;;4.81;87.30;93868.56;5090902;28;20103;-34
2022/12/06 05:11:21;;;;;;;20.63;11.75;;;;;;;4.82;87.28;93866.59;5090550;28;20028;-34
2022/12/06 05:13:47;;;;;;;23.55;10.27;;;;;;;4.84;87.44;93864.84;5090441;28;20016;-34
2022/12/06 05:16:12;;;;;;;17.73;10.50;;;;;;;4.78;87.29;93869.59;5090264;28;20115;-34
2022/12/06 05:18:38;;;;;;;18.83;9.98;;;;;;;4.77;87.26;93867.34;5090449;28;20035;-34
2022/12/06 05:21:17;;;;;;;20.08;9.75;;;;;;;4.75;87.41;93870.56;5090754;28;20053;-34
2022/12/06 05:23:43;;;;;;;20.60;11.40;;;;;;;4.72;87.58;93860.63;5090406;28;20044;-34
2022/12/06 05:26:14;;;;;;;19.88;10.63;;;;;;;4.68;87.96;93868.34;5089985;28;20077;-34
2022/12/06 05:28:40;;;;;;;24.55;13.30;;;;;;;4.71;87.97;93869.34;5090299;28;20026;-34
2022/12/06 05:31:06;;;;;;;33.50;16.67;;;;;;;4.77;87.98;93875.53;5090514;28;20118;-34
2022/12/06 05:33:31;;;;;;;49.92;24.33;;;;;;;4.75;87.99;93878.78;5090322;28;20016;-34
2022/12/06 05:35:57;;;;;;;33.30;15.25;;;;;;;4.74;88.18;93880.03;5090608;28;20028;-35
2022/12/06 05:38:22;;;;;;;27.02;17.17;;;;;;;4.66;88.34;93875.59;5090452;28;20034;-34
2022/12/06 05:40:48;;;;;;;34.15;18.55;;;;;;;4.74;88.27;93873.81;5090105;28;20066;-34
2022/12/06 05:43:14;;;;;;;28.02;14.05;;;;;;;4.74;88.37;93871.84;5090458;28;20019;-34
2022/12/06 05:45:40;;;;;;;31.45;14.90;;;;;;;4.65;88.24;93850.22;5090487;28;20051;-34
2022/12/06 05:48:06;;;;;;;29.63;16.00;;;;;;;4.81;87.88;93874.03;5090240;28;20514;-34
2022/12/06 05:50:32;;;;;;;26.58;13.77;;;;;;;4.79;87.86;93873.03;5090160;28;20074;-34
2022/12/06 05:52:58;;;;;;;22.38;14.02;;;;;;;4.83;87.95;93877.00;5090427;28;20027;-34
2022/12/06 05:55:24;;;;;;;24.98;14.32;;;;;;;4.71;88.04;93863.88;5090413;28;20454;-34
2022/12/06 05:57:50;;;;;;;26.77;14.77;;;;;;;4.82;88.16;93872.06;5089918;28;20031;-34
2022/12/06 06:00:16;;;;;;;31.13;17.10;;;;;;;4.79;88.36;93873.78;5090366;28;20050;-34
2022/12/06 06:02:42;;;;;;;22.20;13.27;;;;;;;4.83;88.30;93879.03;5089954;28;20055;-34
2022/12/06 06:05:07;;;;;;;21.70;13.18;;;;;;;4.83;88.32;93871.53;5090256;28;20048;-34
2022/12/06 06:07:33;;;;;;;29.98;15.35;;;;;;;4.87;88.09;93877.53;5090257;28;20024;-34
2022/12/06 06:09:59;;;;;;;32.58;15.55;;;;;;;4.87;88.01;93879.50;5089818;28;20416;-34
2022/12/06 06:12:24;;;;;;;29.48;16.98;;;;;;;4.88;87.89;93880.97;5089885;28;20027;-34
2022/12/06 06:14:50;;;;;;;27.17;15.38;;;;;;;4.94;87.57;93878.97;5089681;28;20071;-34
2022/12/06 06:17:15;;;;;;;22.02;12.73;;;;;;;4.95;87.10;93880.47;5089886;28;20055;-34
2022/12/06 06:19:41;;;;;;;25.77;14.65;;;;;;;4.99;86.69;93880.97;5089851;28;20016;-34
2022/12/06 06:22:06;;;;;;;24.17;12.05;;;;;;;4.95;87.01;93883.22;5089901;28;20040;-34
2022/12/06 06:24:40;;;;;;;20.02;11.70;;;;;;;4.92;87.24;93879.47;5089802;28;20051;-34
2022/12/06 06:27:05;;;;;;;20.15;11.70;;;;;;;4.99;87.13;93872.75;5089321;28;20043;-34
2022/12/06 06:29:31;;;;;;;17.65;10.30;;;;;;;5.10;85.92;93881.69;5075125;28;20081;-34
2022/12/06 06:31:57;;;;;;;17.63;10.45;;;;;;;5.15;84.63;93885.66;5093611;28;20023;-34
2022/12/06 06:34:23;;;;;;;21.73;11.35;;;;;;;5.13;84.67;93880.66;5093716;28;20055;-34
2022/12/06 06:36:49;;;;;;;16.95;10.35;;;;;;;5.09;84.62;93874.69;5093531;28;20028;-34
2022/12/06 06:39:14;;;;;;;22.35;10.88;;;;;;;5.08;84.62;93878.69;5093445;28;20024;-34
2022/12/06 06:41:39;;;;;;;19.27;10.13;;;;;;;5.10;84.51;93884.41;5093669;28;20023;-34
2022/12/06 06:44:05;;;;;;;20.00;9.85;;;;;;;4.97;84.44;93865.03;5093746;28;20049;-34
2022/12/06 06:46:30;;;;;;;19.20;10.18;;;;;;;5.11;84.81;93876.94;5093257;28;20027;-34
2022/12/06 06:48:56;;;;;;;17.90;10.55;;;;;;;5.04;84.85;93880.97;5093664;28;20518;-34
2022/12/06 06:51:22;;;;;;;20.23;10.00;;;;;;;5.12;84.75;93886.63;5093206;28;20078;-34
2022/12/06 06:53:47;;;;;;;20.83;9.93;;;;;;;5.08;84.47;93877.94;5093263;28;20107;-34
2022/12/06 06:56:13;;;;;;;22.27;10.98;;;;;;;4.97;84.61;93886.19;5093238;28;20120;-34
2022/12/06 06:58:38;;;;;;;21.98;11.32;;;;;;;5.07;85.12;93890.13;5093023;28;20030;-34
2022/12/06 07:01:06;;;;;;;21.55;10.07;;;;;;;4.99;85.45;93883.69;5093076;28;20061;-34
2022/12/06 07:03:31;;;;;;;24.70;10.85;;;;;;;5.10;85.43;93886.41;5092960;28;20063;-34
2022/12/06 07:05:59;;;;;;;24.50;11.77;;;;;;;5.23;85.43;93883.88;5093058;28;20058;-34
2022/12/06 07:08:26;;;;;;;25.02;11.70;;;;;;;5.29;85.40;93881.84;5092886;28;20025;-34
2022/12/06 07:10:53;;;;;;;18.58;10.38;;;;;;;5.27;84.60;93878.88;5093052;28;20081;-34
2022/12/06 07:13:20;;;;;;;21.08;11.00;;;;;;;5.45;83.94;93893.97;5092836;28;20016;-34
2022/12/06 07:15:45;;;;;;;21.13;10.52;;;;;;;5.49;83.49;93881.50;5092692;28;20591;-34
2022/12/06 07:18:11;;;;;;;19.85;10.77;;;;;;;5.45;82.75;93878.31;5092731;28;20106;-34
2022/12/06 07:20:36;;;;;;;19.70;10.18;;;;;;;5.50;83.02;93866.56;5074728;28;20056;-34
2022/12/06 07:23:02;;;;;;;21.80;11.57;;;;;;;5.48;83.43;93871.06;5092402;28;20040;-34
2022/12/06 07:25:28;;;;;;;13.95;9.65;;;;;;;5.62;82.79;93865.25;5092503;28;20012;-34
2022/12/06 07:27:53;;;;;;;18.83;8.85;;;;;;;5.78;81.41;93878.09;5092852;28;20028;-34
2022/12/06 07:30:19;;;;;;;15.60;9.82;;;;;;;5.78;81.51;93875.38;5092655;28;20046;-34
2022/12/06 07:32:44;;;;;;;18.80;9.90;;;;;;;5.86;80.92;93870.88;5092404;28;20020;-34
2022/12/06 07:35:10;;;;;;;18.85;10.18;;;;;;;5.76;80.96;93868.94;5092629;28;20020;-34
2022/12/06 07:37:35;;;;;;;15.70;9.15;;;;;;;5.79;81.23;93871.38;5092679;28;20465;-34
2022/12/06 07:40:01;;;;;;;15.82;9.52;;;;;;;5.80;80.60;93878.38;5091843;28;20073;-34
2022/12/06 07:45:13;;;;;;;17.95;9.50;;;;;;;5.87;80.38;93857.91;5092869;28;20078;-34
2022/12/06 07:47:40;;;;;;;14.95;8.95;;;;;;;5.99;80.76;93856.59;5092253;28;20016;-34
